Time;durP1;ratioP1;P1;durP2;ratioP2;P2;SDS_P1;SDS_P2;PMS_P1;PMS_P2;Temp;Humidity;BMP_temperature;BMP_pressure;BME280_temperature;BME280_humidity;BME280_pressure;Samples;Min_cycle;Max_cycle;Signal;HPM_P1;HPM_P2
2022/01/05 00:00:00;;;;;;;5.90;4.37;;;;;;;;;;4976371;28;20187;-75
2022/01/05 00:02:26;;;;;;;4.17;3.77;;;;;;;;;;4976371;28;20188;-76
2022/01/05 00:04:53;;;;;;;5.27;4.60;;;;;;;;;;4992584;28;20242;-76
2022/01/05 00:07:19;;;;;;;5.33;4.43;;;;;;;;;;4976273;28;20192;-76
2022/01/05 00:09:45;;;;;;;4.73;4.23;;;;;;;;;;4992278;28;20183;-76
2022/01/05 00:12:11;;;;;;;4.50;4.00;;;;;;;;;;4976140;28;20180;-75
2022/01/05 00:14:37;;;;;;;4.97;4.47;;;;;;;;;;4992032;28;20196;-76
2022/01/05 00:17:03;;;;;;;5.27;4.30;;;;;;;;;;4991953;28;20220;-76
2022/01/05 00:19:29;;;;;;;3.93;3.50;;;;;;;;;;4992099;28;20183;-75
2022/01/05 00:21:55;;;;;;;4.27;3.87;;;;;;;;;;4976069;28;20180;-75
2022/01/05 00:24:21;;;;;;;4.40;3.80;;;;;;;;;;4975888;28;20215;-75
2022/01/05 00:26:47;;;;;;;4.40;4.00;;;;;;;;;;4992012;28;20184;-76
2022/01/05 00:29:13;;;;;;;4.13;3.73;;;;;;;;;;4975791;28;20184;-75
2022/01/05 00:31:40;;;;;;;3.50;3.20;;;;;;;;;;4976079;28;20180;-76
2022/01/05 00:34:06;;;;;;;3.80;3.40;;;;;;;;;;4975836;28;20185;-75
2022/01/05 00:36:32;;;;;;;3.53;3.23;;;;;;;;;;4975901;28;20181;-75
2022/01/05 00:38:58;;;;;;;5.10;3.47;;;;;;;;;;4975891;28;20184;-76
2022/01/05 00:41:24;;;;;;;4.30;3.80;;;;;;;;;;4975646;28;20237;-75
2022/01/05 00:46:23;;;;;;;3.53;3.23;;;;;;;;;;5010081;28;20228;-81
2022/01/05 00:48:49;;;;;;;3.60;3.30;;;;;;;;;;5011414;28;20191;-80
2022/01/05 00:51:15;;;;;;;3.70;3.40;;;;;;;;;;4995267;28;20306;-81
2022/01/05 00:53:41;;;;;;;3.40;3.10;;;;;;;;;;4995016;28;20200;-81
2022/01/05 00:56:07;;;;;;;3.80;3.40;;;;;;;;;;5012304;28;20206;-78
2022/01/05 00:58:33;;;;;;;4.57;3.33;;;;;;;;;;5010747;28;20174;-78
2022/01/05 01:01:00;;;;;;;3.90;3.50;;;;;;;;;;5011793;28;20204;-78
2022/01/05 01:03:36;;;;;;;3.60;3.30;;;;;;;;;;5538463;22;20226;-80
2022/01/05 01:06:02;;;;;;;3.30;3.00;;;;;;;;;;4998571;28;20256;-79
2022/01/05 01:08:28;;;;;;;4.30;3.77;;;;;;;;;;5015082;28;20191;-80
2022/01/05 01:10:54;;;;;;;4.23;3.83;;;;;;;;;;5015183;28;20175;-80
2022/01/05 01:13:21;;;;;;;3.83;3.43;;;;;;;;;;4998487;28;20203;-79
2022/01/05 01:15:48;;;;;;;4.17;3.60;;;;;;;;;;5015494;28;20174;-79
2022/01/05 01:18:15;;;;;;;3.67;3.27;;;;;;;;;;4997673;28;20234;-79
2022/01/05 01:20:41;;;;;;;3.90;3.53;;;;;;;;;;4998367;28;20179;-79
2022/01/05 01:23:07;;;;;;;4.10;3.37;;;;;;;;;;4997874;28;20223;-79
2022/01/05 01:25:34;;;;;;;3.90;3.53;;;;;;;;;;5014362;28;20626;-79
2022/01/05 01:28:00;;;;;;;4.13;3.73;;;;;;;;;;5014246;28;20194;-79
2022/01/05 01:30:30;;;;;;;3.80;3.47;;;;;;;;;;5014223;28;20182;-79
2022/01/05 01:32:56;;;;;;;4.53;3.50;;;;;;;;;;5014180;28;20186;-79
2022/01/05 01:35:22;;;;;;;4.23;3.83;;;;;;;;;;4998102;28;20209;-79
2022/01/05 01:37:47;;;;;;;4.07;3.67;;;;;;;;;;4998166;28;20183;-79
2022/01/05 01:40:14;;;;;;;4.67;3.90;;;;;;;;;;4997948;28;20189;-79
2022/01/05 01:42:40;;;;;;;4.33;3.83;;;;;;;;;;4997859;28;20184;-79
2022/01/05 01:45:06;;;;;;;4.70;3.80;;;;;;;;;;4997720;28;20421;-79
2022/01/05 01:47:32;;;;;;;4.03;3.70;;;;;;;;;;4998153;28;20252;-79
2022/01/05 01:49:58;;;;;;;3.77;3.40;;;;;;;;;;5014188;28;20176;-79
2022/01/05 01:52:24;;;;;;;4.10;3.70;;;;;;;;;;4997869;28;20531;-79
2022/01/05 01:54:51;;;;;;;3.73;3.43;;;;;;;;;;4997349;28;20238;-79
2022/01/05 01:57:18;;;;;;;4.10;3.70;;;;;;;;;;4998044;28;20697;-79
2022/01/05 01:59:45;;;;;;;3.80;3.40;;;;;;;;;;4997917;28;20634;-79
2022/01/05 02:02:11;;;;;;;4.53;3.50;;;;;;;;;;5014396;28;20187;-79
2022/01/05 02:04:39;;;;;;;3.87;3.53;;;;;;;;;;4997671;28;20234;-79
2022/01/05 02:07:05;;;;;;;3.60;3.30;;;;;;;;;;4997988;28;20175;-79
2022/01/05 02:09:31;;;;;;;4.07;3.20;;;;;;;;;;5013983;28;20179;-79
2022/01/05 02:11:57;;;;;;;3.70;3.33;;;;;;;;;;5000568;28;20182;-79
2022/01/05 02:14:23;;;;;;;3.80;3.40;;;;;;;;;;5017078;28;20195;-79
2022/01/05 02:16:49;;;;;;;5.23;3.80;;;;;;;;;;5001140;28;20183;-79
2022/01/05 02:19:15;;;;;;;4.03;3.30;;;;;;;;;;5001329;28;20190;-79
2022/01/05 02:21:42;;;;;;;3.77;3.47;;;;;;;;;;5017606;28;20214;-79
2022/01/05 02:24:09;;;;;;;3.77;3.40;;;;;;;;;;5000971;28;20218;-79
2022/01/05 02:26:35;;;;;;;3.43;3.13;;;;;;;;;;5001070;28;20197;-79
2022/01/05 02:29:02;;;;;;;4.27;3.87;;;;;;;;;;5001220;28;20221;-79
2022/01/05 02:31:28;;;;;;;3.83;3.40;;;;;;;;;;5001140;28;20237;-80
2022/01/05 02:33:54;;;;;;;4.17;3.53;;;;;;;;;;5017042;28;20566;-79
2022/01/05 02:36:21;;;;;;;3.90;3.50;;;;;;;;;;5017124;28;20190;-80
2022/01/05 02:38:51;;;;;;;4.17;3.30;;;;;;;;;;5000825;28;20244;-79
2022/01/05 02:41:17;;;;;;;3.83;3.40;;;;;;;;;;5017251;28;20179;-79
2022/01/05 02:43:43;;;;;;;4.93;3.57;;;;;;;;;;5016713;28;20271;-79
2022/01/05 02:46:11;;;;;;;4.50;3.50;;;;;;;;;;5000638;28;20218;-79
2022/01/05 02:48:37;;;;;;;4.00;3.27;;;;;;;;;;5016970;28;20210;-79
2022/01/05 02:51:05;;;;;;;4.17;3.63;;;;;;;;;;5016895;28;20179;-79
2022/01/05 02:53:31;;;;;;;3.97;3.50;;;;;;;;;;5016372;28;20578;-79
2022/01/05 02:55:57;;;;;;;3.87;3.43;;;;;;;;;;5000480;28;20184;-79
2022/01/05 02:58:23;;;;;;;3.80;3.50;;;;;;;;;;5016851;28;20275;-79
2022/01/05 03:00:49;;;;;;;4.03;3.13;;;;;;;;;;5016612;28;20268;-79
2022/01/05 03:03:15;;;;;;;4.57;3.20;;;;;;;;;;5000053;28;20214;-79
2022/01/05 03:05:41;;;;;;;3.50;3.20;;;;;;;;;;5016325;28;20198;-79
2022/01/05 03:08:07;;;;;;;3.60;3.20;;;;;;;;;;5016342;28;20182;-79
2022/01/05 03:10:33;;;;;;;3.40;3.10;;;;;;;;;;5000494;28;20297;-79
2022/01/05 03:12:59;;;;;;;3.77;3.37;;;;;;;;;;5000171;28;20182;-79
2022/01/05 03:15:25;;;;;;;2.00;1.80;;;;;;;;;;5000089;28;20292;-79
2022/01/05 03:17:51;;;;;;;0.80;0.70;;;;;;;;;;5016370;28;20182;-79
2022/01/05 03:20:17;;;;;;;0.60;0.60;;;;;;;;;;5016227;28;20182;-79
2022/01/05 03:22:44;;;;;;;0.30;0.30;;;;;;;;;;5015995;28;20178;-80
2022/01/05 03:25:16;;;;;;;0.27;0.20;;;;;;;;;;5015670;28;20276;-79
2022/01/05 03:27:46;;;;;;;0.20;0.20;;;;;;;;;;5001001;28;20201;-79
2022/01/05 03:30:13;;;;;;;0.03;0.03;;;;;;;;;;5015963;28;20197;-79
2022/01/05 03:32:55;;;;;;;0.50;0.10;;;;;;;;;;5000002;28;20177;-79
2022/01/05 03:35:21;;;;;;;0.70;0.10;;;;;;;;;;5002333;28;20210;-80
2022/01/05 03:37:47;;;;;;;0.13;0.10;;;;;;;;;;5016223;28;20541;-80
2022/01/05 03:40:13;;;;;;;0.20;0.20;;;;;;;;;;4999894;28;20180;-80
2022/01/05 03:42:39;;;;;;;0.33;0.20;;;;;;;;;;4999810;28;20176;-80
2022/01/05 03:45:05;;;;;;;0.10;0.10;;;;;;;;;;5015550;28;20205;-80
2022/01/05 03:47:31;;;;;;;0.10;0.10;;;;;;;;;;5016067;28;20204;-80
2022/01/05 03:49:57;;;;;;;0.10;0.10;;;;;;;;;;4999564;28;20612;-79
2022/01/05 03:52:23;;;;;;;0.20;0.20;;;;;;;;;;5015742;28;20174;-81
2022/01/05 03:54:50;;;;;;;0.70;0.20;;;;;;;;;;5015465;28;20206;-81
2022/01/05 03:57:16;;;;;;;0.20;0.10;;;;;;;;;;4999624;28;20192;-81
2022/01/05 03:59:42;;;;;;;0.20;0.13;;;;;;;;;;5015711;28;20227;-79
2022/01/05 04:02:08;;;;;;;0.30;0.10;;;;;;;;;;4999389;28;20210;-80
2022/01/05 04:04:34;;;;;;;0.10;0.10;;;;;;;;;;5015537;28;20223;-79
2022/01/05 04:07:00;;;;;;;0.10;0.10;;;;;;;;;;5015921;28;20187;-80
2022/01/05 04:09:26;;;;;;;0.83;0.10;;;;;;;;;;4999500;28;20186;-80
2022/01/05 04:11:52;;;;;;;0.20;0.10;;;;;;;;;;5015577;28;20182;-80
2022/01/05 04:14:18;;;;;;;0.13;0.13;;;;;;;;;;4998907;28;20205;-80
2022/01/05 04:16:44;;;;;;;0.50;0.10;;;;;;;;;;4999172;28;20185;-80
2022/01/05 04:19:10;;;;;;;0.20;0.20;;;;;;;;;;4999161;28;20195;-81
2022/01/05 04:21:36;;;;;;;0.00;0.00;;;;;;;;;;4999382;28;20184;-81
2022/01/05 04:24:02;;;;;;;0.20;0.10;;;;;;;;;;5014889;28;20234;-81
2022/01/05 04:26:28;;;;;;;0.20;0.20;;;;;;;;;;4999157;28;20257;-80
2022/01/05 04:28:54;;;;;;;0.10;0.10;;;;;;;;;;4998967;28;20646;-80
2022/01/05 04:31:20;;;;;;;0.33;0.20;;;;;;;;;;5015130;28;20186;-80
2022/01/05 04:33:46;;;;;;;0.30;0.30;;;;;;;;;;4998722;28;20211;-81
2022/01/05 04:36:12;;;;;;;0.30;0.30;;;;;;;;;;4999020;28;20184;-80
2022/01/05 04:38:38;;;;;;;1.23;0.30;;;;;;;;;;5015255;28;20181;-80
2022/01/05 04:41:04;;;;;;;1.03;0.40;;;;;;;;;;4999088;28;20746;-81
2022/01/05 04:43:31;;;;;;;0.20;0.20;;;;;;;;;;4998538;28;20217;-79
2022/01/05 04:45:57;;;;;;;2.40;0.50;;;;;;;;;;5033099;28;20180;-80
2022/01/05 04:48:23;;;;;;;0.37;0.37;;;;;;;;;;5014970;28;20192;-80
2022/01/05 04:50:49;;;;;;;0.30;0.30;;;;;;;;;;5014770;28;20643;-80
2022/01/05 04:53:15;;;;;;;0.50;0.40;;;;;;;;;;4998377;28;20253;-80
2022/01/05 04:55:42;;;;;;;1.20;0.60;;;;;;;;;;4998565;28;20189;-80
2022/01/05 04:58:08;;;;;;;2.90;0.70;;;;;;;;;;4998248;28;20195;-79
2022/01/05 05:00:34;;;;;;;3.10;0.70;;;;;;;;;;4998464;28;20183;-79
2022/01/05 05:03:00;;;;;;;0.97;0.80;;;;;;;;;;4998018;28;20545;-80
2022/01/05 05:05:26;;;;;;;1.30;0.77;;;;;;;;;;5014812;28;20330;-79
2022/01/05 05:07:52;;;;;;;2.37;0.77;;;;;;;;;;4998461;28;20645;-80
2022/01/05 05:10:18;;;;;;;2.30;0.80;;;;;;;;;;5014663;28;20641;-79
2022/01/05 05:12:44;;;;;;;1.57;0.70;;;;;;;;;;4998325;28;20178;-79
2022/01/05 05:15:10;;;;;;;2.33;0.90;;;;;;;;;;4997876;28;20197;-79
2022/01/05 05:17:36;;;;;;;2.30;0.90;;;;;;;;;;5014666;28;20181;-80
2022/01/05 05:20:02;;;;;;;2.03;1.10;;;;;;;;;;4998383;28;20181;-80
2022/01/05 05:22:28;;;;;;;1.30;0.80;;;;;;;;;;5014444;28;20185;-80
2022/01/05 05:24:54;;;;;;;1.13;0.80;;;;;;;;;;4997958;28;20219;-80
2022/01/05 05:27:20;;;;;;;1.60;0.90;;;;;;;;;;4998067;28;20191;-80
2022/01/05 05:29:46;;;;;;;2.10;0.80;;;;;;;;;;5014224;28;20177;-80
2022/01/05 05:32:12;;;;;;;1.40;0.80;;;;;;;;;;4998349;28;20177;-80
2022/01/05 05:34:38;;;;;;;5.50;0.93;;;;;;;;;;4997920;28;20808;-80
2022/01/05 05:37:04;;;;;;;1.60;1.10;;;;;;;;;;4998123;28;20227;-80
2022/01/05 05:39:30;;;;;;;1.27;1.07;;;;;;;;;;4998123;28;20239;-80
2022/01/05 05:41:56;;;;;;;3.13;1.03;;;;;;;;;;4998114;28;20550;-79
2022/01/05 05:44:22;;;;;;;1.57;0.90;;;;;;;;;;4997598;28;20223;-79
2022/01/05 05:46:48;;;;;;;1.07;0.97;;;;;;;;;;5000796;28;20207;-80
2022/01/05 05:49:14;;;;;;;3.00;1.40;;;;;;;;;;5001721;28;20657;-79
2022/01/05 05:51:40;;;;;;;1.77;1.10;;;;;;;;;;5001813;28;20177;-80
2022/01/05 05:54:06;;;;;;;1.50;1.20;;;;;;;;;;5001440;28;20204;-79
2022/01/05 05:56:32;;;;;;;2.23;1.33;;;;;;;;;;5017931;28;20276;-79
2022/01/05 05:58:58;;;;;;;1.83;1.37;;;;;;;;;;5001579;28;20188;-80
2022/01/05 06:01:24;;;;;;;1.37;1.20;;;;;;;;;;5001798;28;20229;-79
2022/01/05 06:03:50;;;;;;;2.07;1.30;;;;;;;;;;5017408;28;20216;-79
2022/01/05 06:06:16;;;;;;;3.00;1.50;;;;;;;;;;5017614;28;20188;-79
2022/01/05 06:08:42;;;;;;;2.10;1.40;;;;;;;;;;5001834;28;20218;-80
2022/01/05 06:11:08;;;;;;;3.37;1.70;;;;;;;;;;5002216;28;20195;-80
2022/01/05 06:13:34;;;;;;;2.07;1.57;;;;;;;;;;5001773;28;20244;-80
2022/01/05 06:16:00;;;;;;;2.83;1.57;;;;;;;;;;5018550;28;20176;-80
2022/01/05 06:18:26;;;;;;;6.77;1.67;;;;;;;;;;5002337;28;20701;-80
2022/01/05 06:20:53;;;;;;;3.97;1.90;;;;;;;;;;5002104;28;20188;-80
2022/01/05 06:23:19;;;;;;;3.90;1.90;;;;;;;;;;5001596;28;20215;-80
2022/01/05 06:25:45;;;;;;;3.00;1.80;;;;;;;;;;5002221;28;20182;-80
2022/01/05 06:28:11;;;;;;;3.90;1.80;;;;;;;;;;5001416;28;20211;-79
2022/01/05 06:30:40;;;;;;;2.13;1.40;;;;;;;;;;5001855;28;20176;-79
2022/01/05 06:33:07;;;;;;;3.47;1.70;;;;;;;;;;5001459;28;20552;-79
2022/01/05 06:35:33;;;;;;;3.30;1.70;;;;;;;;;;5017713;28;20185;-80
2022/01/05 06:37:59;;;;;;;3.30;1.90;;;;;;;;;;5017752;28;20215;-80
2022/01/05 06:40:25;;;;;;;4.07;1.97;;;;;;;;;;5001335;28;20184;-79
2022/01/05 06:42:51;;;;;;;4.10;2.37;;;;;;;;;;5017430;28;20188;-79
2022/01/05 06:45:17;;;;;;;5.47;1.80;;;;;;;;;;5001138;28;20204;-79
2022/01/05 06:47:43;;;;;;;3.60;1.97;;;;;;;;;;5017490;28;20199;-79
2022/01/05 06:50:10;;;;;;;5.07;2.10;;;;;;;;;;5001287;28;20203;-79
2022/01/05 06:52:36;;;;;;;4.67;2.10;;;;;;;;;;5017491;28;20519;-79
2022/01/05 06:55:03;;;;;;;3.40;2.13;;;;;;;;;;5017220;28;20195;-79
2022/01/05 06:57:29;;;;;;;4.03;2.27;;;;;;;;;;5016903;28;20190;-77
2022/01/05 06:59:55;;;;;;;4.03;2.33;;;;;;;;;;5016999;28;20265;-79
2022/01/05 07:02:21;;;;;;;4.53;2.20;;;;;;;;;;5000949;28;20302;-78
2022/01/05 07:04:47;;;;;;;3.67;2.57;;;;;;;;;;5016426;28;20211;-78
2022/01/05 07:07:13;;;;;;;4.60;2.80;;;;;;;;;;5016621;28;20178;-78
2022/01/05 07:09:39;;;;;;;5.80;2.30;;;;;;;;;;5000238;28;20188;-77
2022/01/05 07:12:05;;;;;;;5.73;2.33;;;;;;;;;;5000624;28;20237;-77
2022/01/05 07:14:31;;;;;;;3.13;2.40;;;;;;;;;;5016344;28;20252;-78
2022/01/05 07:16:57;;;;;;;7.00;2.83;;;;;;;;;;5026237;23;20226;-77
2022/01/05 07:19:23;;;;;;;5.17;2.67;;;;;;;;;;4996505;28;20668;-79
2022/01/05 07:21:49;;;;;;;4.37;2.43;;;;;;;;;;5013106;28;20633;-78
2022/01/05 07:24:17;;;;;;;4.77;2.93;;;;;;;;;;4996415;28;20215;-79
2022/01/05 07:26:44;;;;;;;4.90;2.67;;;;;;;;;;5014250;28;20260;-77
2022/01/05 07:29:11;;;;;;;4.60;2.80;;;;;;;;;;4996776;28;20183;-78
2022/01/05 07:31:37;;;;;;;5.93;3.20;;;;;;;;;;4996715;28;20183;-77
2022/01/05 07:34:03;;;;;;;5.60;3.13;;;;;;;;;;4996647;28;20269;-78
2022/01/05 07:36:29;;;;;;;9.87;5.50;;;;;;;;;;5012680;28;20614;-77
2022/01/05 07:38:55;;;;;;;6.37;2.93;;;;;;;;;;4996252;28;20186;-77
2022/01/05 07:41:21;;;;;;;6.73;3.27;;;;;;;;;;5012695;28;20175;-80
2022/01/05 07:43:47;;;;;;;6.80;3.60;;;;;;;;;;4996179;28;20253;-79
2022/01/05 07:46:13;;;;;;;5.60;3.43;;;;;;;;;;5012813;28;20241;-79
2022/01/05 07:48:39;;;;;;;4.63;3.03;;;;;;;;;;5012607;28;20175;-79
2022/01/05 07:51:05;;;;;;;5.77;3.33;;;;;;;;;;5012516;28;20171;-80
2022/01/05 07:53:31;;;;;;;4.63;3.00;;;;;;;;;;5012316;28;20187;-79
2022/01/05 07:55:57;;;;;;;4.97;2.37;;;;;;;;;;4996018;28;20182;-79
2022/01/05 07:58:23;;;;;;;5.60;3.27;;;;;;;;;;4995873;28;20423;-79
2022/01/05 08:00:50;;;;;;;8.27;4.70;;;;;;;;;;4996055;28;20210;-79
2022/01/05 08:03:16;;;;;;;7.73;4.30;;;;;;;;;;4995768;28;20203;-79
2022/01/05 08:05:42;;;;;;;6.80;3.43;;;;;;;;;;4995914;28;20175;-79
2022/01/05 08:08:08;;;;;;;6.87;3.70;;;;;;;;;;4994955;28;20221;-79
2022/01/05 08:10:34;;;;;;;5.87;2.87;;;;;;;;;;5012284;28;20179;-79
2022/01/05 08:13:00;;;;;;;8.30;2.90;;;;;;;;;;5011981;28;20237;-79
2022/01/05 08:15:26;;;;;;;5.77;2.97;;;;;;;;;;5012205;28;20278;-79
2022/01/05 08:17:52;;;;;;;6.17;3.53;;;;;;;;;;5012035;28;20245;-79
2022/01/05 08:20:18;;;;;;;10.10;3.40;;;;;;;;;;5012072;28;20213;-79
2022/01/05 08:22:45;;;;;;;4.93;3.00;;;;;;;;;;4995572;28;20531;-79
2022/01/05 08:25:13;;;;;;;4.47;2.30;;;;;;;;;;5011598;28;20574;-79
2022/01/05 08:27:46;;;;;;;8.30;3.97;;;;;;;;;;4995749;28;20313;-78
2022/01/05 08:30:16;;;;;;;4.17;2.60;;;;;;;;;;4996457;28;20179;-79
2022/01/05 08:32:43;;;;;;;4.37;2.20;;;;;;;;;;4995683;28;20190;-79
2022/01/05 08:35:10;;;;;;;5.03;2.77;;;;;;;;;;4995264;28;20236;-78
2022/01/05 08:37:36;;;;;;;5.47;2.80;;;;;;;;;;5013080;28;20202;-78
2022/01/05 08:40:03;;;;;;;22.60;8.57;;;;;;;;;;4995495;28;20221;-79
2022/01/05 08:42:29;;;;;;;17.53;7.83;;;;;;;;;;5011776;28;20186;-78
2022/01/05 08:44:57;;;;;;;16.80;8.33;;;;;;;;;;5011389;28;20202;-78
2022/01/05 08:47:23;;;;;;;5.77;3.40;;;;;;;;;;4995584;28;20213;-78
2022/01/05 08:49:49;;;;;;;10.70;5.87;;;;;;;;;;5011729;28;20225;-78
2022/01/05 08:52:15;;;;;;;9.80;3.73;;;;;;;;;;5011710;28;20175;-78
2022/01/05 08:54:41;;;;;;;8.33;3.50;;;;;;;;;;4995093;28;20190;-78
2022/01/05 08:57:08;;;;;;;8.03;3.73;;;;;;;;;;4995314;28;20298;-78
2022/01/05 08:59:36;;;;;;;8.50;3.97;;;;;;;;;;5011471;28;20198;-78
2022/01/05 09:02:02;;;;;;;4.70;2.00;;;;;;;;;;4995369;28;20183;-78
2022/01/05 09:04:28;;;;;;;5.70;2.67;;;;;;;;;;4995299;28;20516;-78
2022/01/05 09:06:55;;;;;;;6.13;3.20;;;;;;;;;;4995425;28;20237;-78
2022/01/05 09:09:21;;;;;;;4.87;2.57;;;;;;;;;;5011557;28;20206;-78
2022/01/05 09:11:47;;;;;;;6.70;3.27;;;;;;;;;;4995326;28;20221;-78
2022/01/05 09:14:13;;;;;;;6.63;3.47;;;;;;;;;;5011415;28;20202;-79
2022/01/05 09:16:39;;;;;;;7.70;3.33;;;;;;;;;;4994986;28;20222;-78
2022/01/05 09:19:05;;;;;;;9.80;3.90;;;;;;;;;;4995248;28;20249;-78
2022/01/05 09:21:32;;;;;;;6.63;3.13;;;;;;;;;;4999386;28;20202;-78
2022/01/05 09:23:58;;;;;;;9.27;2.90;;;;;;;;;;4998914;28;20260;-78
2022/01/05 09:26:24;;;;;;;5.77;2.27;;;;;;;;;;4999076;28;20289;-78
2022/01/05 09:28:50;;;;;;;5.73;2.73;;;;;;;;;;4999199;28;20178;-79
2022/01/05 09:31:16;;;;;;;4.47;2.00;;;;;;;;;;5015094;28;20561;-78
2022/01/05 09:33:42;;;;;;;4.57;1.93;;;;;;;;;;4998981;28;20190;-78
2022/01/05 09:36:17;;;;;;;7.07;1.93;;;;;;;;;;4999046;28;20272;-78
2022/01/05 09:44:04;;;;;;;4.13;1.83;;;;;;;;;;5015023;28;20221;-79
2022/01/05 09:46:32;;;;;;;6.03;2.33;;;;;;;;;;5014692;28;20198;-79
2022/01/05 09:48:58;;;;;;;5.37;2.07;;;;;;;;;;5012234;28;20202;-79
2022/01/05 09:51:25;;;;;;;7.67;2.50;;;;;;;;;;5005553;28;20226;-79
2022/01/05 09:53:52;;;;;;;5.33;2.30;;;;;;;;;;5005331;28;20182;-79
2022/01/05 09:56:18;;;;;;;7.03;2.50;;;;;;;;;;5000265;28;20203;-78
2022/01/05 09:58:44;;;;;;;4.87;2.00;;;;;;;;;;4978908;28;20223;-78
2022/01/05 10:01:10;;;;;;;7.90;2.20;;;;;;;;;;4995186;28;20206;-78
2022/01/05 10:03:36;;;;;;;4.13;1.83;;;;;;;;;;4978834;28;20583;-78
2022/01/05 10:06:02;;;;;;;5.77;2.30;;;;;;;;;;4978808;28;20175;-78
2022/01/05 10:08:28;;;;;;;3.37;1.87;;;;;;;;;;4978820;28;20234;-79
2022/01/05 10:10:54;;;;;;;6.97;2.20;;;;;;;;;;4994636;28;20245;-78
2022/01/05 10:13:21;;;;;;;5.03;2.27;;;;;;;;;;4978765;28;20211;-79
2022/01/05 10:15:47;;;;;;;3.70;2.20;;;;;;;;;;4994710;28;20203;-78
2022/01/05 10:18:15;;;;;;;5.73;2.27;;;;;;;;;;4978596;28;20202;-78
2022/01/05 10:20:56;;;;;;;6.20;2.40;;;;;;;;;;4978652;28;20279;-78
2022/01/05 10:23:42;;;;;;;4.87;2.20;;;;;;;;;;4994587;28;20203;-79
2022/01/05 10:26:18;;;;;;;6.57;2.13;;;;;;;;;;4978594;28;20203;-79
2022/01/05 10:28:45;;;;;;;6.60;2.23;;;;;;;;;;4994921;28;20175;-79
2022/01/05 10:31:19;;;;;;;8.23;3.10;;;;;;;;;;4993936;28;20176;-80
2022/01/05 10:33:45;;;;;;;6.43;2.70;;;;;;;;;;4995647;28;20179;-79
2022/01/05 10:36:11;;;;;;;5.90;2.80;;;;;;;;;;4978347;28;20655;-79
2022/01/05 10:38:37;;;;;;;8.97;3.33;;;;;;;;;;4994310;28;20651;-79
2022/01/05 10:41:16;;;;;;;5.53;2.40;;;;;;;;;;4978686;28;20247;-79
2022/01/05 10:44:01;;;;;;;6.17;2.07;;;;;;;;;;4994152;28;20294;-79
2022/01/05 10:46:35;;;;;;;5.77;2.37;;;;;;;;;;4994357;28;20291;-79
2022/01/05 10:49:03;;;;;;;5.90;3.00;;;;;;;;;;4978327;28;20187;-79
2022/01/05 10:51:30;;;;;;;9.17;2.57;;;;;;;;;;4993954;28;20218;-79
2022/01/05 10:54:15;;;;;;;5.10;2.53;;;;;;;;;;4993861;28;20590;-79
2022/01/05 10:56:42;;;;;;;7.40;2.63;;;;;;;;;;4994338;28;20650;-78
2022/01/05 10:59:08;;;;;;;5.67;2.70;;;;;;;;;;4993916;28;20186;-79
2022/01/05 11:01:34;;;;;;;7.03;2.90;;;;;;;;;;4978207;28;20190;-76
2022/01/05 11:04:15;;;;;;;4.83;2.03;;;;;;;;;;4993439;28;20251;-77
2022/01/05 11:06:53;;;;;;;6.93;1.90;;;;;;;;;;4993759;28;20203;-76
2022/01/05 11:09:21;;;;;;;5.60;1.97;;;;;;;;;;4993491;28;20180;-77
2022/01/05 11:11:49;;;;;;;5.37;1.90;;;;;;;;;;4993806;28;20274;-76
2022/01/05 11:14:15;;;;;;;7.27;3.20;;;;;;;;;;4977595;28;20210;-76
2022/01/05 11:16:42;;;;;;;6.87;2.53;;;;;;;;;;4993600;28;20297;-76
2022/01/05 11:19:12;;;;;;;4.33;2.27;;;;;;;;;;4993410;28;20256;-76
2022/01/05 11:21:39;;;;;;;4.47;2.10;;;;;;;;;;4993562;28;20172;-77
2022/01/05 11:24:05;;;;;;;6.40;2.10;;;;;;;;;;4992953;28;20234;-77
2022/01/05 11:26:35;;;;;;;6.57;2.00;;;;;;;;;;4993442;28;20206;-77
2022/01/05 11:29:03;;;;;;;8.60;2.10;;;;;;;;;;4993187;28;20619;-75
2022/01/05 11:31:29;;;;;;;6.70;2.60;;;;;;;;;;4993241;28;20262;-77
2022/01/05 11:33:55;;;;;;;6.20;2.77;;;;;;;;;;4993090;28;20226;-78
2022/01/05 11:36:22;;;;;;;6.83;2.00;;;;;;;;;;4977669;28;20633;-78
2022/01/05 11:38:47;;;;;;;2.90;1.30;;;;;;;;;;4996038;28;20195;-79
2022/01/05 11:41:15;;;;;;;8.57;1.90;;;;;;;;;;4977331;28;20184;-75
2022/01/05 11:43:41;;;;;;;4.90;1.60;;;;;;;;;;4991885;28;20204;-77
2022/01/05 11:46:22;;;;;;;7.10;2.23;;;;;;;;;;4994441;28;20196;-77
2022/01/05 11:49:02;;;;;;;6.40;1.70;;;;;;;;;;4992930;28;20697;-76
2022/01/05 11:51:30;;;;;;;8.07;3.30;;;;;;;;;;4977753;28;20180;-76
2022/01/05 11:54:12;;;;;;;4.97;2.30;;;;;;;;;;4979658;28;20227;-79
2022/01/05 11:56:42;;;;;;;6.17;2.00;;;;;;;;;;4997826;28;20637;-79
2022/01/05 11:59:19;;;;;;;5.87;1.90;;;;;;;;;;4998027;28;20222;-79
2022/01/05 12:01:57;;;;;;;6.40;2.00;;;;;;;;;;4996180;28;20179;-79
2022/01/05 12:04:23;;;;;;;6.53;2.07;;;;;;;;;;4996605;28;20211;-79
2022/01/05 12:06:49;;;;;;;4.50;1.80;;;;;;;;;;4996979;28;20283;-79
2022/01/05 12:09:20;;;;;;;7.73;2.13;;;;;;;;;;4995920;28;20326;-79
2022/01/05 12:11:46;;;;;;;3.87;1.87;;;;;;;;;;4979674;28;20560;-79
2022/01/05 12:14:21;;;;;;;4.83;2.60;;;;;;;;;;4978892;28;20184;-79
2022/01/05 12:17:02;;;;;;;7.87;2.33;;;;;;;;;;4994482;28;20233;-79
2022/01/05 12:19:29;;;;;;;5.30;2.40;;;;;;;;;;4994434;28;20184;-79
2022/01/05 12:21:56;;;;;;;5.17;2.20;;;;;;;;;;4994624;28;20271;-79
2022/01/05 12:24:22;;;;;;;4.03;1.77;;;;;;;;;;4994412;28;20200;-79
2022/01/05 12:27:12;;;;;;;4.90;1.87;;;;;;;;;;4996027;28;20191;-79
2022/01/05 12:29:38;;;;;;;5.83;2.03;;;;;;;;;;4986397;28;20180;-79
2022/01/05 12:32:04;;;;;;;4.80;2.00;;;;;;;;;;4978233;28;20250;-79
2022/01/05 12:34:49;;;;;;;5.93;2.40;;;;;;;;;;4978089;28;20187;-79
2022/01/05 12:37:33;;;;;;;7.93;2.00;;;;;;;;;;4994352;28;20209;-79
2022/01/05 12:39:59;;;;;;;6.53;2.17;;;;;;;;;;4994212;28;20599;-79
2022/01/05 12:42:25;;;;;;;6.63;2.30;;;;;;;;;;4977641;28;20188;-79
2022/01/05 12:44:51;;;;;;;4.53;1.80;;;;;;;;;;4978075;28;20203;-79
2022/01/05 12:47:34;;;;;;;6.87;2.30;;;;;;;;;;4978299;28;20227;-79
2022/01/05 12:50:16;;;;;;;5.30;1.90;;;;;;;;;;4995364;28;20175;-78
2022/01/05 12:52:42;;;;;;;6.37;2.10;;;;;;;;;;4993935;28;20660;-79
2022/01/05 12:55:08;;;;;;;4.17;1.93;;;;;;;;;;4977867;28;20187;-79
2022/01/05 12:57:39;;;;;;;4.87;2.50;;;;;;;;;;4977542;28;20208;-79
2022/01/05 13:00:05;;;;;;;11.27;4.77;;;;;;;;;;4978915;28;20222;-79
2022/01/05 13:02:32;;;;;;;5.10;1.83;;;;;;;;;;4993874;28;20179;-79
2022/01/05 13:05:01;;;;;;;6.47;2.27;;;;;;;;;;4977911;28;20250;-79
2022/01/05 13:07:29;;;;;;;7.93;2.37;;;;;;;;;;4993868;28;20227;-79
2022/01/05 13:09:56;;;;;;;5.57;1.97;;;;;;;;;;4977613;28;20176;-79
2022/01/05 13:12:23;;;;;;;5.43;2.10;;;;;;;;;;4993934;28;20176;-79
2022/01/05 13:14:51;;;;;;;5.93;2.40;;;;;;;;;;4994801;28;20187;-79
2022/01/05 13:17:20;;;;;;;4.60;2.20;;;;;;;;;;4995197;28;20273;-78
2022/01/05 13:19:47;;;;;;;6.80;2.30;;;;;;;;;;4995298;28;20211;-79
2022/01/05 13:22:16;;;;;;;5.53;2.50;;;;;;;;;;4994874;28;20180;-79
2022/01/05 13:24:42;;;;;;;6.63;2.43;;;;;;;;;;4994100;28;20235;-79
2022/01/05 13:27:09;;;;;;;6.10;2.23;;;;;;;;;;4994582;28;20223;-78
2022/01/05 13:29:35;;;;;;;7.07;2.77;;;;;;;;;;4993852;28;20180;-79
2022/01/05 13:32:02;;;;;;;6.80;2.50;;;;;;;;;;4992505;28;20187;-78
2022/01/05 13:34:40;;;;;;;7.93;2.70;;;;;;;;;;4993913;28;20207;-79
2022/01/05 13:37:07;;;;;;;5.10;2.57;;;;;;;;;;4978878;28;20207;-80
2022/01/05 13:39:41;;;;;;;5.17;2.80;;;;;;;;;;4994177;28;20218;-79
2022/01/05 13:42:18;;;;;;;7.03;2.50;;;;;;;;;;4993786;28;20180;-78
2022/01/05 13:44:46;;;;;;;6.70;2.27;;;;;;;;;;4994255;28;20214;-79
2022/01/05 13:47:13;;;;;;;4.60;1.97;;;;;;;;;;4995072;28;20200;-79
2022/01/05 13:49:39;;;;;;;4.57;2.20;;;;;;;;;;4978066;28;20187;-78
2022/01/05 13:52:06;;;;;;;7.67;2.10;;;;;;;;;;4994251;28;20209;-79
2022/01/05 13:54:33;;;;;;;5.73;2.43;;;;;;;;;;4977911;28;20216;-79
2022/01/05 13:56:59;;;;;;;8.60;2.60;;;;;;;;;;4993949;28;20203;-79
2022/01/05 13:59:27;;;;;;;4.17;2.17;;;;;;;;;;4993513;28;20176;-79
2022/01/05 14:01:59;;;;;;;3.70;2.00;;;;;;;;;;4977896;28;20188;-79
2022/01/05 14:04:25;;;;;;;5.33;2.20;;;;;;;;;;4993495;28;20214;-79
2022/01/05 14:06:59;;;;;;;5.50;1.93;;;;;;;;;;4994988;28;20203;-79
2022/01/05 14:09:29;;;;;;;6.80;2.70;;;;;;;;;;4981478;28;20191;-80
2022/01/05 14:11:57;;;;;;;5.23;2.30;;;;;;;;;;4980892;28;20663;-80
2022/01/05 14:14:23;;;;;;;10.00;2.37;;;;;;;;;;4996838;28;20203;-80
2022/01/05 14:16:50;;;;;;;4.10;2.00;;;;;;;;;;4980553;28;20219;-79
2022/01/05 14:19:29;;;;;;;4.13;2.20;;;;;;;;;;4997279;28;20665;-79
2022/01/05 14:22:06;;;;;;;5.70;2.53;;;;;;;;;;4980650;28;20266;-79
2022/01/05 14:24:33;;;;;;;5.90;2.10;;;;;;;;;;4980348;28;20219;-79
2022/01/05 14:27:00;;;;;;;4.67;2.20;;;;;;;;;;4980919;28;20200;-81
2022/01/05 14:29:26;;;;;;;4.70;2.10;;;;;;;;;;4995761;28;20279;-81
2022/01/05 14:31:52;;;;;;;5.53;2.60;;;;;;;;;;4998356;28;20691;-81
2022/01/05 14:34:20;;;;;;;4.70;2.67;;;;;;;;;;4995763;28;20183;-81
2022/01/05 14:36:47;;;;;;;5.07;2.13;;;;;;;;;;4996271;28;20219;-81
2022/01/05 14:39:17;;;;;;;6.63;2.37;;;;;;;;;;4998819;28;20610;-79
2022/01/05 14:41:46;;;;;;;4.83;2.27;;;;;;;;;;4997575;28;20176;-79
2022/01/05 14:44:15;;;;;;;3.53;2.20;;;;;;;;;;4981441;28;20234;-78
2022/01/05 14:46:42;;;;;;;3.97;2.40;;;;;;;;;;4997881;28;20199;-79
2022/01/05 14:49:09;;;;;;;3.40;2.03;;;;;;;;;;4997141;28;20180;-79
2022/01/05 14:51:35;;;;;;;5.93;2.77;;;;;;;;;;4997592;28;20275;-79